createdAt,value
2023-03-26T00:01:26.243Z,75924.00
2023-03-26T00:03:58.082Z,75924.00
2023-03-26T00:06:28.912Z,75917.94
2023-03-26T00:08:58.019Z,75936.19
2023-03-26T00:11:27.513Z,75940.22
2023-03-26T00:13:57.816Z,75940.22
2023-03-26T00:16:30.669Z,75944.28
2023-03-26T00:18:59.818Z,75952.38
2023-03-26T00:21:28.741Z,75948.34
2023-03-26T00:23:59.762Z,75956.44
2023-03-26T00:26:29.637Z,75948.34
2023-03-26T00:28:58.399Z,75956.44
2023-03-26T00:31:25.405Z,75956.44
2023-03-26T00:33:56.022Z,75966.56
2023-03-26T00:36:25.803Z,75968.59
2023-03-26T00:38:54.285Z,75956.44
2023-03-26T00:41:25.475Z,75958.47
2023-03-26T00:43:56.569Z,75960.50
2023-03-26T00:46:26.042Z,75936.19
2023-03-26T00:48:53.904Z,75956.44
2023-03-26T00:51:21.613Z,75960.50
2023-03-26T00:53:50.551Z,75952.38
2023-03-26T00:56:18.561Z,75960.50
2023-03-26T00:58:46.208Z,75960.50
2023-03-26T01:01:16.419Z,75952.38
2023-03-26T01:04:00.973Z,75950.38
2023-03-26T01:06:36.734Z,75950.38
2023-03-26T01:09:14.181Z,75960.50
2023-03-26T01:11:41.089Z,75946.31
2023-03-26T01:14:16.014Z,75928.06
2023-03-26T01:16:53.475Z,75924.00
2023-03-26T01:19:31.741Z,75928.06
2023-03-26T01:21:59.095Z,75930.09
2023-03-26T01:24:26.456Z,75919.97
2023-03-26T01:27:04.353Z,75915.91
2023-03-26T01:29:43.496Z,75915.91
2023-03-26T01:32:25.917Z,75919.97
2023-03-26T01:34:59.241Z,75913.88
2023-03-26T01:37:39.686Z,75911.84
2023-03-26T01:40:25.973Z,75903.75
2023-03-26T01:43:13.925Z,75911.84
2023-03-26T01:45:44.817Z,75915.91
2023-03-26T01:48:12.700Z,75915.91
2023-03-26T01:50:39.913Z,75901.72
2023-03-26T01:53:09.205Z,75903.75
2023-03-26T01:55:49.829Z,75901.72
2023-03-26T01:58:41.637Z,75891.59
2023-03-26T02:01:24.695Z,75895.66
2023-03-26T02:04:02.451Z,75891.59
2023-03-26T02:06:44.519Z,75891.59
2023-03-26T02:09:17.500Z,75883.47
2023-03-26T02:11:46.082Z,75887.53
2023-03-26T02:14:14.821Z,75881.44
2023-03-26T02:16:46.893Z,75883.47
2023-03-26T02:19:21.535Z,75879.44
2023-03-26T02:21:51.466Z,75871.31
2023-03-26T02:24:20.360Z,75875.38
2023-03-26T02:26:49.334Z,75875.38
2023-03-26T02:29:20.451Z,75871.31
2023-03-26T02:31:49.587Z,75871.31
2023-03-26T02:34:17.012Z,75879.44
2023-03-26T02:36:52.448Z,75881.44
2023-03-26T02:39:19.638Z,75895.66
2023-03-26T02:41:54.890Z,75897.66
2023-03-26T02:44:21.978Z,75893.63
2023-03-26T02:46:58.265Z,75887.53
2023-03-26T02:49:43.724Z,75881.44
2023-03-26T02:52:17.180Z,75883.47
2023-03-26T02:54:44.525Z,75883.47
2023-03-26T02:57:17.877Z,75867.28
2023-03-26T03:00:14.759Z,75867.28
2023-03-26T03:02:48.639Z,75867.28
2023-03-26T03:05:32.657Z,75867.28
2023-03-26T03:08:26.279Z,75867.28
2023-03-26T03:11:13.093Z,75871.31
2023-03-26T03:13:53.714Z,75875.38
2023-03-26T03:16:23.788Z,75879.44
2023-03-26T03:18:58.092Z,75867.28
2023-03-26T03:21:34.398Z,75871.31
2023-03-26T03:24:01.617Z,75871.31
2023-03-26T03:26:34.213Z,75867.28
2023-03-26T03:29:13.233Z,75863.22
2023-03-26T03:31:41.393Z,75855.09
2023-03-26T03:34:18.656Z,75855.09
2023-03-26T03:36:50.138Z,75853.09
2023-03-26T03:39:31.298Z,75849.03
2023-03-26T03:41:58.142Z,75842.94
2023-03-26T03:44:25.366Z,75834.84
2023-03-26T03:46:55.582Z,75842.94
2023-03-26T03:49:23.261Z,75859.16
2023-03-26T03:51:50.575Z,75859.16
2023-03-26T03:54:28.365Z,75853.09
2023-03-26T03:57:09.706Z,75861.19
2023-03-26T03:59:47.893Z,75859.16
2023-03-26T04:02:26.099Z,75851.06
2023-03-26T04:04:57.690Z,75853.09
2023-03-26T04:07:26.278Z,75855.09
2023-03-26T04:10:16.485Z,75857.13
2023-03-26T04:13:02.168Z,75859.16
2023-03-26T04:15:48.439Z,75863.22
2023-03-26T04:18:15.730Z,75859.16
2023-03-26T04:20:46.506Z,75867.28
2023-03-26T04:23:19.556Z,75867.28
2023-03-26T04:25:54.193Z,75871.31
2023-03-26T04:28:46.349Z,75869.28
2023-03-26T04:31:29.300Z,75869.28
2023-03-26T04:34:05.970Z,75867.28
2023-03-26T04:36:37.466Z,75871.31
2023-03-26T04:39:05.408Z,75865.25
2023-03-26T04:41:57.941Z,75861.19
2023-03-26T04:44:30.442Z,75863.22
2023-03-26T04:47:10.590Z,75867.28
2023-03-26T04:49:45.708Z,75861.19
2023-03-26T04:52:15.432Z,75867.28
2023-03-26T04:55:27.509Z,75867.28
2023-03-26T04:58:05.533Z,75871.31
2023-03-26T05:00:51.269Z,75871.31
2023-03-26T05:03:21.137Z,75863.22
2023-03-26T05:05:49.759Z,75867.28
2023-03-26T05:08:17.014Z,75859.16
2023-03-26T05:10:43.962Z,75855.09
2023-03-26T05:13:16.248Z,75847.00
2023-03-26T05:15:49.056Z,75840.91
2023-03-26T05:18:30.012Z,75838.91
2023-03-26T05:20:57.544Z,75838.91
2023-03-26T05:23:25.796Z,75830.78
2023-03-26T05:26:04.336Z,75822.69
2023-03-26T05:28:31.568Z,75814.56
2023-03-26T05:31:21.376Z,75808.50
2023-03-26T05:33:51.133Z,75802.41
2023-03-26T05:36:19.247Z,75798.38
2023-03-26T05:38:59.888Z,75786.19
2023-03-26T05:41:47.464Z,75788.22
2023-03-26T05:44:14.694Z,75782.16
2023-03-26T05:46:41.734Z,75767.97
2023-03-26T05:49:12.647Z,75749.72
2023-03-26T05:51:39.577Z,75759.84
2023-03-26T05:54:24.578Z,75753.78
2023-03-26T05:57:03.616Z,75737.56
2023-03-26T05:59:50.842Z,75721.34
2023-03-26T06:02:36.576Z,75709.19
2023-03-26T06:05:39.600Z,75697.03
2023-03-26T06:08:16.046Z,75692.97
2023-03-26T06:10:53.602Z,75680.81
2023-03-26T06:13:21.342Z,75668.66
2023-03-26T06:15:51.469Z,75668.66
2023-03-26T06:18:33.956Z,75672.72
2023-03-26T06:21:20.260Z,75646.38
2023-03-26T06:23:52.019Z,75660.56
2023-03-26T06:26:42.829Z,75668.66
2023-03-26T06:29:28.566Z,75692.97
2023-03-26T06:32:09.205Z,75729.47
2023-03-26T06:34:56.849Z,75770.00
2023-03-26T06:37:24.621Z,75798.38
2023-03-26T06:39:57.375Z,75822.69
2023-03-26T06:43:08.873Z,75822.69
2023-03-26T06:45:53.085Z,75818.63
2023-03-26T06:48:43.060Z,75816.59
2023-03-26T06:51:12.720Z,75814.56
2023-03-26T06:53:58.534Z,75820.66
2023-03-26T06:56:48.794Z,75822.69
2023-03-26T06:59:25.348Z,75826.72
2023-03-26T07:02:11.950Z,75818.63
2023-03-26T07:04:59.478Z,75804.44
2023-03-26T07:07:46.481Z,75790.25
2023-03-26T07:10:33.784Z,75770.00
2023-03-26T07:13:12.159Z,75761.88
2023-03-26T07:15:57.865Z,75741.63
2023-03-26T07:18:51.153Z,75711.22
2023-03-26T07:21:22.991Z,75680.81
2023-03-26T07:23:51.730Z,75660.56
2023-03-26T07:27:06.622Z,75652.44
2023-03-26T07:29:56.931Z,75622.06
2023-03-26T07:32:52.394Z,75595.69
2023-03-26T07:35:57.130Z,75571.38
2023-03-26T07:38:43.831Z,75538.97
2023-03-26T07:42:02.201Z,75528.84
2023-03-26T07:45:06.574Z,75526.81
2023-03-26T07:47:43.032Z,75510.59
2023-03-26T07:50:38.124Z,75510.59
2023-03-26T07:53:12.094Z,75510.59
2023-03-26T07:56:13.342Z,75502.50
2023-03-26T07:59:17.804Z,75500.47
2023-03-26T08:02:21.698Z,75510.59
2023-03-26T08:05:18.940Z,75530.84
2023-03-26T08:08:23.155Z,75518.69
2023-03-26T08:11:29.020Z,75510.59
2023-03-26T08:14:02.528Z,75502.50
2023-03-26T08:16:42.784Z,75490.31
2023-03-26T08:19:22.409Z,75506.53
2023-03-26T08:21:57.376Z,75482.22
2023-03-26T08:24:40.342Z,75476.16
2023-03-26T08:27:19.548Z,75445.75
2023-03-26T08:30:21.759Z,75449.81
2023-03-26T08:32:56.530Z,75482.22
2023-03-26T08:35:25.450Z,75482.22
2023-03-26T08:37:53.293Z,75494.38
2023-03-26T08:40:59.770Z,75470.06
2023-03-26T08:43:45.048Z,75433.59
2023-03-26T08:46:28.712Z,75437.63
2023-03-26T08:49:33.338Z,75431.56
2023-03-26T08:52:22.841Z,75409.28
2023-03-26T08:55:27.841Z,75393.06
2023-03-26T08:58:14.023Z,75399.13
2023-03-26T09:01:19.213Z,75393.06
2023-03-26T09:04:12.568Z,75413.31
2023-03-26T09:07:00.551Z,75419.41
2023-03-26T09:09:40.940Z,75449.81
2023-03-26T09:12:39.547Z,75459.94
2023-03-26T09:15:30.117Z,75514.66
2023-03-26T09:18:06.269Z,75567.34
2023-03-26T09:20:52.233Z,75603.81
2023-03-26T09:23:36.729Z,75615.97
2023-03-26T09:26:27.888Z,75624.06
2023-03-26T09:29:26.950Z,75613.94
2023-03-26T09:32:32.357Z,75587.59
2023-03-26T09:35:33.318Z,75547.06
2023-03-26T09:38:22.369Z,75506.53
2023-03-26T09:41:02.342Z,75470.06
2023-03-26T09:43:36.648Z,75441.69
2023-03-26T09:46:06.515Z,75429.53
2023-03-26T09:48:44.683Z,75437.63
2023-03-26T09:51:17.901Z,75421.44
2023-03-26T09:54:16.399Z,75445.75
2023-03-26T09:57:08.660Z,75445.75
2023-03-26T09:59:42.004Z,75449.81
2023-03-26T10:02:22.152Z,75461.97
2023-03-26T10:05:35.389Z,75437.63
2023-03-26T10:08:28.831Z,75417.38
2023-03-26T10:11:05.561Z,75413.31
2023-03-26T10:13:51.032Z,75403.19
2023-03-26T10:16:31.281Z,75384.97
2023-03-26T10:19:35.607Z,75368.75
2023-03-26T10:22:28.714Z,75372.78
2023-03-26T10:25:22.239Z,75352.53
2023-03-26T10:28:23.718Z,75338.34
2023-03-26T10:31:06.085Z,75340.38
2023-03-26T10:33:39.370Z,75328.22
2023-03-26T10:36:14.411Z,75291.75
2023-03-26T10:39:05.747Z,75291.75
2023-03-26T10:41:54.391Z,75320.13
2023-03-26T10:44:36.025Z,75342.41
2023-03-26T10:47:12.759Z,75340.38
2023-03-26T10:49:52.273Z,75437.63
2023-03-26T10:52:23.841Z,75551.13
2023-03-26T10:55:06.699Z,75644.34
2023-03-26T10:57:49.020Z,75684.88
2023-03-26T11:00:25.511Z,75703.13
2023-03-26T11:02:55.694Z,75705.13
2023-03-26T11:05:49.429Z,75692.97
2023-03-26T11:08:44.611Z,75656.50
2023-03-26T11:11:30.091Z,75611.91
2023-03-26T11:14:01.078Z,75551.13
2023-03-26T11:17:01.369Z,75500.47
2023-03-26T11:19:34.352Z,75466.00
2023-03-26T11:22:07.352Z,75437.63
2023-03-26T11:24:43.581Z,75433.59
2023-03-26T11:27:25.868Z,75453.84
2023-03-26T11:30:02.271Z,75466.00
2023-03-26T11:32:51.677Z,75413.31
2023-03-26T11:35:40.993Z,75370.78
2023-03-26T11:38:26.424Z,75348.47
2023-03-26T11:40:56.689Z,75354.56
2023-03-26T11:44:24.650Z,75348.47
2023-03-26T11:47:01.383Z,75352.53
2023-03-26T11:49:29.558Z,75336.31
2023-03-26T11:51:56.808Z,75320.13
2023-03-26T11:54:23.964Z,75307.94
2023-03-26T11:57:05.195Z,75289.72
2023-03-26T11:59:53.067Z,75297.81
2023-03-26T12:02:29.300Z,75285.66
2023-03-26T12:05:25.029Z,75283.63
2023-03-26T12:07:56.859Z,75255.25
2023-03-26T12:10:35.118Z,75218.78
2023-03-26T12:13:15.670Z,75182.31
2023-03-26T12:15:43.753Z,75186.38
2023-03-26T12:18:28.073Z,75218.78
2023-03-26T12:21:16.072Z,75243.09
2023-03-26T12:24:11.212Z,75279.59
2023-03-26T12:26:50.403Z,75295.78
2023-03-26T12:29:19.274Z,75285.66
2023-03-26T12:31:54.509Z,75299.84
2023-03-26T12:34:29.632Z,75326.19
2023-03-26T12:37:01.058Z,75352.53
2023-03-26T12:40:09.298Z,75342.41
2023-03-26T12:44:43.310Z,75336.31
2023-03-26T12:45:27.960Z,75312.00
2023-03-26T12:48:03.579Z,75291.75
2023-03-26T12:50:35.940Z,75287.69
2023-03-26T12:53:28.337Z,75255.25
2023-03-26T12:56:02.299Z,75208.66
2023-03-26T12:58:29.783Z,75214.75
2023-03-26T13:01:08.985Z,75226.91
2023-03-26T13:04:23.308Z,75263.38
2023-03-26T13:07:00.829Z,75283.63
2023-03-26T13:10:16.920Z,75312.00
2023-03-26T13:12:56.983Z,75332.28
2023-03-26T13:15:38.619Z,75336.31
2023-03-26T13:18:24.434Z,75348.47
2023-03-26T13:21:05.397Z,75368.75
2023-03-26T13:24:00.646Z,75352.53
2023-03-26T13:26:58.970Z,75340.38
2023-03-26T13:29:28.700Z,75340.38
2023-03-26T13:32:04.646Z,75326.19
2023-03-26T13:34:55.965Z,75307.94
2023-03-26T13:37:42.082Z,75285.66
2023-03-26T13:40:25.658Z,75247.16
2023-03-26T13:43:02.401Z,75235.00
2023-03-26T13:45:47.496Z,75218.78
2023-03-26T13:48:24.597Z,75251.22
2023-03-26T13:51:16.415Z,75259.31
2023-03-26T13:54:11.875Z,75281.59
2023-03-26T13:56:47.705Z,75291.75
2023-03-26T13:59:23.263Z,75305.94
2023-03-26T14:01:58.204Z,75299.84
2023-03-26T14:04:33.772Z,75328.22
2023-03-26T14:07:15.868Z,75328.22
2023-03-26T14:10:06.276Z,75324.16
2023-03-26T14:12:45.976Z,75295.78
2023-03-26T14:15:22.641Z,75291.75
2023-03-26T14:18:01.738Z,75263.38
2023-03-26T14:20:53.521Z,75251.22
2023-03-26T14:23:34.435Z,75257.28
2023-03-26T14:26:40.946Z,75235.00
2023-03-26T14:29:23.639Z,75210.69
2023-03-26T14:32:06.058Z,75166.09
2023-03-26T14:34:51.197Z,75178.28
2023-03-26T14:37:34.534Z,75218.78
2023-03-26T14:40:16.950Z,75202.59
2023-03-26T14:43:18.412Z,75212.72
2023-03-26T14:45:51.725Z,75249.19
2023-03-26T14:48:34.153Z,75247.16
2023-03-26T14:51:41.233Z,75243.09
2023-03-26T14:54:13.529Z,75226.91
2023-03-26T14:56:58.469Z,75230.94
2023-03-26T14:59:57.154Z,75247.16
2023-03-26T15:02:58.142Z,75247.16
2023-03-26T15:06:00.903Z,75267.44
2023-03-26T15:09:21.751Z,75275.53
2023-03-26T15:12:13.090Z,75275.53
2023-03-26T15:15:18.117Z,75289.72
2023-03-26T15:18:24.485Z,75291.75
2023-03-26T15:21:29.068Z,75305.94
2023-03-26T15:24:34.757Z,75318.09
2023-03-26T15:27:26.898Z,75326.19
2023-03-26T15:30:15.373Z,75332.28
2023-03-26T15:33:20.409Z,75324.16
2023-03-26T15:36:23.616Z,75336.31
2023-03-26T15:39:18.720Z,75344.44
2023-03-26T15:42:19.013Z,75356.59
2023-03-26T15:45:12.979Z,75352.53
2023-03-26T15:48:11.919Z,75356.59
2023-03-26T15:50:56.728Z,75352.53
2023-03-26T15:53:48.268Z,75328.22
2023-03-26T15:56:43.597Z,75316.06
2023-03-26T15:59:12.159Z,75328.22
2023-03-26T16:02:03.197Z,75348.47
2023-03-26T16:04:54.029Z,75366.72
2023-03-26T16:08:03.193Z,75360.63
2023-03-26T16:10:51.343Z,75352.53
2023-03-26T16:13:36.741Z,75358.63
2023-03-26T16:16:04.670Z,75374.81
2023-03-26T16:18:37.120Z,75384.97
2023-03-26T16:21:34.362Z,75393.06
2023-03-26T16:24:08.071Z,75407.25
2023-03-26T16:26:44.632Z,75413.31
2023-03-26T16:29:18.336Z,75425.47
2023-03-26T16:32:07.584Z,75409.28
2023-03-26T16:35:00.440Z,75421.44
2023-03-26T16:37:37.241Z,75413.31
2023-03-26T16:40:16.783Z,75411.28
2023-03-26T16:43:28.711Z,75429.53
2023-03-26T16:46:11.196Z,75449.81
2023-03-26T16:48:48.558Z,75466.00
2023-03-26T16:52:02.455Z,75478.16
2023-03-26T16:54:43.605Z,75500.47
2023-03-26T16:57:17.227Z,75518.69
2023-03-26T17:00:06.713Z,75530.84
2023-03-26T17:02:53.767Z,75538.97
2023-03-26T17:05:25.415Z,75551.13
2023-03-26T17:08:05.213Z,75567.34
2023-03-26T17:10:57.006Z,75561.25
2023-03-26T17:14:03.688Z,75575.44
2023-03-26T17:16:41.499Z,75575.44
2023-03-26T17:19:22.817Z,75583.53
2023-03-26T17:22:13.990Z,75591.66
2023-03-26T17:25:01.566Z,75607.88
2023-03-26T17:28:16.436Z,75611.91
2023-03-26T17:30:49.378Z,75630.16
2023-03-26T17:33:29.515Z,75644.34
2023-03-26T17:36:11.441Z,75648.41
2023-03-26T17:38:45.312Z,75656.50
2023-03-26T17:41:15.869Z,75654.47
2023-03-26T17:43:52.303Z,75664.59
2023-03-26T17:46:39.153Z,75664.59
2023-03-26T17:49:12.474Z,75664.59
2023-03-26T17:51:56.690Z,75674.75
2023-03-26T17:54:47.100Z,75680.81
2023-03-26T17:57:21.844Z,75697.03
2023-03-26T17:59:53.269Z,75701.09
2023-03-26T18:02:27.846Z,75709.19
2023-03-26T18:04:56.528Z,75717.28
2023-03-26T18:07:28.064Z,75721.34
2023-03-26T18:10:12.895Z,75721.34
2023-03-26T18:13:08.462Z,75725.41
2023-03-26T18:16:06.699Z,75737.56
2023-03-26T18:19:01.640Z,75743.66
2023-03-26T18:21:37.553Z,75745.66
2023-03-26T18:24:07.176Z,75753.78
2023-03-26T18:27:14.860Z,75765.94
2023-03-26T18:30:02.428Z,75767.97
2023-03-26T18:32:33.770Z,75767.97
2023-03-26T18:35:22.014Z,75782.16
2023-03-26T18:37:52.000Z,75776.06
2023-03-26T18:40:24.535Z,75774.03
2023-03-26T18:42:55.982Z,75774.03
2023-03-26T18:45:37.695Z,75765.94
2023-03-26T18:48:10.426Z,75757.81
2023-03-26T18:50:41.564Z,75765.94
2023-03-26T18:53:20.638Z,75753.78
2023-03-26T18:55:50.783Z,75759.84
2023-03-26T18:58:26.673Z,75761.88
2023-03-26T19:01:03.880Z,75757.81
2023-03-26T19:03:35.853Z,75770.00
2023-03-26T19:06:08.669Z,75770.00
2023-03-26T19:08:39.112Z,75778.09
2023-03-26T19:11:08.364Z,75786.19
2023-03-26T19:13:38.299Z,75786.19
2023-03-26T19:16:33.574Z,75786.19
2023-03-26T19:19:05.296Z,75778.09
2023-03-26T19:21:34.295Z,75786.19
2023-03-26T19:24:04.008Z,75782.16
2023-03-26T19:26:31.867Z,75786.19
2023-03-26T19:29:00.810Z,75798.38
2023-03-26T19:31:33.204Z,75804.44
2023-03-26T19:34:02.142Z,75810.53
2023-03-26T19:36:32.637Z,75814.56
2023-03-26T19:38:59.922Z,75818.63
2023-03-26T19:41:42.278Z,75818.63
2023-03-26T19:44:21.520Z,75822.69
2023-03-26T19:46:52.916Z,75826.72
2023-03-26T19:49:28.776Z,75830.78
2023-03-26T19:52:13.256Z,75834.84
2023-03-26T19:57:38.792Z,75851.06
2023-03-26T20:00:13.473Z,75851.06
2023-03-26T20:02:48.940Z,75851.06
2023-03-26T20:05:23.576Z,75851.06
2023-03-26T20:07:55.064Z,75847.00
2023-03-26T20:10:23.427Z,75844.97
2023-03-26T20:12:50.505Z,75847.00
2023-03-26T20:15:22.483Z,75838.91
2023-03-26T20:17:54.657Z,75847.00
2023-03-26T20:20:27.237Z,75847.00
2023-03-26T20:22:54.724Z,75842.94
2023-03-26T20:25:28.790Z,75847.00
2023-03-26T20:27:58.614Z,75855.09
2023-03-26T20:33:12.506Z,75851.06
2023-03-26T20:35:41.651Z,75851.06
2023-03-26T20:38:09.857Z,75859.16
2023-03-26T20:40:38.638Z,75867.28
2023-03-26T20:43:11.789Z,75869.28
2023-03-26T20:45:40.185Z,75867.28
2023-03-26T20:48:10.774Z,75867.28
2023-03-26T20:50:50.499Z,75871.31
2023-03-26T20:53:19.035Z,75883.47
2023-03-26T20:55:47.956Z,75887.53
2023-03-26T20:58:31.402Z,75889.56
2023-03-26T21:01:00.941Z,75903.75
2023-03-26T21:03:28.318Z,75903.75
2023-03-26T21:06:00.276Z,75903.75
2023-03-26T21:08:34.077Z,75905.78
2023-03-26T21:11:02.905Z,75911.84
2023-03-26T21:13:38.384Z,75911.84
2023-03-26T21:16:06.714Z,75907.81
2023-03-26T21:18:34.516Z,75897.66
2023-03-26T21:21:21.189Z,75895.66
2023-03-26T21:24:03.352Z,75891.59
2023-03-26T21:26:43.742Z,75887.53
2023-03-26T21:29:12.052Z,75879.44
2023-03-26T21:31:39.887Z,75875.38
2023-03-26T21:34:08.357Z,75875.38
2023-03-26T21:36:37.002Z,75881.44
2023-03-26T21:39:06.541Z,75893.63
2023-03-26T21:42:05.104Z,75895.66
2023-03-26T21:44:34.573Z,75901.72
2023-03-26T21:47:02.096Z,75907.81
2023-03-26T21:49:29.648Z,75907.81
2023-03-26T21:51:57.220Z,75911.84
2023-03-26T21:54:27.588Z,75911.84
2023-03-26T21:57:09.968Z,75911.84
2023-03-26T22:00:18.493Z,75911.84
2023-03-26T22:03:34.910Z,75911.84
2023-03-26T22:06:16.908Z,75911.84
2023-03-26T22:08:44.535Z,75907.81
2023-03-26T22:11:12.339Z,75911.84
2023-03-26T22:13:39.919Z,75915.91
2023-03-26T22:16:10.026Z,75913.88
2023-03-26T22:18:37.800Z,75919.97
2023-03-26T22:21:05.936Z,75922.00
2023-03-26T22:23:34.489Z,75928.06
2023-03-26T22:26:03.014Z,75932.13
2023-03-26T22:28:30.663Z,75940.22
2023-03-26T22:30:58.632Z,75946.31
2023-03-26T22:33:26.762Z,75956.44
2023-03-26T22:35:55.924Z,75956.44
2023-03-26T22:38:23.681Z,75958.47
2023-03-26T22:40:58.145Z,75956.44
2023-03-26T22:43:26.206Z,75964.56
2023-03-26T22:45:54.671Z,75966.56
2023-03-26T22:48:23.547Z,75974.69
2023-03-26T22:51:10.746Z,75976.72
2023-03-26T22:53:38.179Z,75968.59
2023-03-26T22:56:06.178Z,75972.66
2023-03-26T22:58:34.746Z,75968.59
2023-03-26T23:01:09.053Z,75960.50
2023-03-26T23:03:37.218Z,75964.56
2023-03-26T23:06:07.507Z,75956.44
2023-03-26T23:08:36.234Z,75956.44
2023-03-26T23:11:15.069Z,75962.53
2023-03-26T23:13:43.425Z,75954.41
2023-03-26T23:16:11.806Z,75960.50
2023-03-26T23:18:39.648Z,75960.50
2023-03-26T23:21:12.981Z,75956.44
2023-03-26T23:23:40.476Z,75962.53
2023-03-26T23:26:07.529Z,75960.50
2023-03-26T23:28:35.691Z,75970.63
2023-03-26T23:31:05.581Z,75968.59
2023-03-26T23:33:35.550Z,75980.75
2023-03-26T23:36:08.818Z,75976.72
2023-03-26T23:38:43.889Z,75984.81
2023-03-26T23:41:17.076Z,75990.91
2023-03-26T23:43:54.429Z,75994.94
2023-03-26T23:46:25.142Z,75992.94
2023-03-26T23:48:53.184Z,75992.94
2023-03-26T23:51:21.628Z,75988.88
2023-03-26T23:53:49.591Z,75984.81
2023-03-26T23:56:17.459Z,75988.88
2023-03-26T23:58:45.342Z,75978.75
